Time;durP1;ratioP1;P1;durP2;ratioP2;P2;SDS_P1;SDS_P2;PMS_P1;PMS_P2;Temp;Humidity;BMP_temperature;BMP_pressure;BME280_temperature;BME280_humidity;BME280_pressure;Samples;Min_cycle;Max_cycle;Signal;HPM_P1;HPM_P2
2024/01/10 00:01:32;;;;;;;13.90;7.17;;;;;;;-6.75;74.06;102654.66;5053862;28;20233;-72
2024/01/10 00:04:01;;;;;;;15.10;9.37;;;;;;;-6.81;76.04;102649.44;5053748;28;20222;-71
2024/01/10 00:06:31;;;;;;;14.30;8.30;;;;;;;-6.77;76.00;102650.28;5053519;28;20217;-71
2024/01/10 00:08:59;;;;;;;12.63;7.97;;;;;;;-6.76;76.48;102647.69;5053742;28;20210;-71
2024/01/10 00:11:28;;;;;;;15.37;7.70;;;;;;;-6.71;75.44;102645.94;5053756;28;20230;-71
2024/01/10 00:14:02;;;;;;;12.50;7.63;;;;;;;-6.80;75.84;102640.75;5053240;28;20240;-71
2024/01/10 00:16:30;;;;;;;14.87;7.80;;;;;;;-6.92;75.76;102633.00;5053712;28;20285;-71
2024/01/10 00:18:59;;;;;;;14.17;8.30;;;;;;;-6.88;75.16;102637.31;5053603;28;20210;-71
2024/01/10 00:21:27;;;;;;;14.00;8.57;;;;;;;-6.86;76.18;102625.16;5053620;28;20217;-71
2024/01/10 00:23:57;;;;;;;16.90;8.27;;;;;;;-6.95;76.80;102625.16;5053479;28;20317;-71
2024/01/10 00:26:26;;;;;;;13.83;8.63;;;;;;;-6.86;77.12;102627.78;5053270;28;20703;-71
2024/01/10 00:28:54;;;;;;;15.33;8.60;;;;;;;-6.91;76.79;102621.69;5053478;28;20288;-71
2024/01/10 00:31:32;;;;;;;15.33;8.17;;;;;;;-6.96;76.89;102618.25;5053511;28;20221;-71
2024/01/10 00:34:01;;;;;;;15.07;8.13;;;;;;;-6.97;77.00;102621.72;5052803;28;20284;-71
2024/01/10 00:36:29;;;;;;;12.80;7.77;;;;;;;-6.99;77.71;102617.41;5053497;28;20190;-71
2024/01/10 00:38:59;;;;;;;14.07;8.37;;;;;;;-6.95;75.93;102619.97;5053435;28;20288;-71
2024/01/10 00:41:27;;;;;;;13.87;8.10;;;;;;;-7.09;77.54;102615.69;5053382;28;20603;-71
2024/01/10 00:43:56;;;;;;;14.50;8.40;;;;;;;-7.03;77.40;102608.72;5059828;28;20230;-71
2024/01/10 00:46:24;;;;;;;15.63;8.97;;;;;;;-6.97;76.56;102611.31;5059631;28;20634;-72
2024/01/10 00:48:53;;;;;;;12.03;7.93;;;;;;;-6.87;77.34;102612.13;5059951;28;20206;-71
2024/01/10 00:51:21;;;;;;;16.50;8.60;;;;;;;-6.88;76.04;102606.06;5059663;28;20753;-71
2024/01/10 00:53:50;;;;;;;15.80;9.17;;;;;;;-6.87;77.72;102606.94;5059878;28;20283;-72
2024/01/10 00:56:20;;;;;;;15.03;8.63;;;;;;;-6.87;76.89;102607.81;5059825;28;20287;-72
2024/01/10 00:58:48;;;;;;;13.97;8.50;;;;;;;-6.81;77.25;102607.78;5059497;28;20620;-72
2024/01/10 01:01:17;;;;;;;13.70;8.50;;;;;;;-6.90;75.92;102613.03;5059573;28;20615;-72
2024/01/10 01:03:45;;;;;;;14.77;8.37;;;;;;;-6.85;77.63;102611.25;5059752;28;20231;-71
2024/01/10 01:06:14;;;;;;;17.03;8.40;;;;;;;-6.86;76.07;102609.53;5059789;28;20206;-71
2024/01/10 01:08:42;;;;;;;12.10;8.03;;;;;;;-6.97;77.23;102621.72;5059801;28;20259;-71
2024/01/10 01:11:11;;;;;;;16.63;8.00;;;;;;;-6.94;77.63;102620.84;5059799;28;20208;-71
2024/01/10 01:13:41;;;;;;;14.13;8.20;;;;;;;-6.88;77.26;102615.59;5059370;28;20738;-71
2024/01/10 01:16:12;;;;;;;13.13;8.00;;;;;;;-6.93;77.25;102613.03;5059639;28;20222;-71
2024/01/10 01:18:42;;;;;;;14.20;8.30;;;;;;;-6.90;77.29;102620.84;5059714;28;20226;-71
2024/01/10 01:21:10;;;;;;;19.23;8.70;;;;;;;-6.92;76.78;102625.19;5059672;28;20206;-71
2024/01/10 01:23:39;;;;;;;18.37;8.60;;;;;;;-6.89;77.40;102622.56;5059558;28;20222;-71
2024/01/10 01:26:10;;;;;;;13.73;8.27;;;;;;;-6.86;77.91;102616.47;5059387;28;20636;-71
2024/01/10 01:28:39;;;;;;;14.87;7.43;;;;;;;-6.91;76.51;102619.09;5059608;28;20292;-71
2024/01/10 01:31:09;;;;;;;13.47;7.47;;;;;;;-7.00;76.30;102619.13;5059627;28;20210;-72
2024/01/10 01:33:38;;;;;;;14.07;7.87;;;;;;;-7.02;77.61;102613.03;5059528;28;20287;-72
2024/01/10 01:36:07;;;;;;;12.57;7.20;;;;;;;-6.99;76.21;102623.47;5059159;28;20691;-71
2024/01/10 01:38:37;;;;;;;13.60;7.90;;;;;;;-6.92;77.95;102609.56;5059255;28;20300;-71
2024/01/10 01:41:06;;;;;;;13.63;8.37;;;;;;;-6.92;77.75;102611.31;5059537;28;20210;-71
2024/01/10 01:43:36;;;;;;;15.20;7.97;;;;;;;-6.92;77.36;102612.16;5059423;28;20312;-71
2024/01/10 01:46:04;;;;;;;14.47;8.30;;;;;;;-6.85;76.33;102613.03;5059470;28;20263;-71
2024/01/10 01:48:35;;;;;;;10.70;6.60;;;;;;;-6.89;77.19;102609.56;5059166;28;20652;-72
2024/01/10 01:51:06;;;;;;;14.83;7.77;;;;;;;-6.99;76.34;102606.97;5059548;28;20190;-72
2024/01/10 01:53:36;;;;;;;12.07;7.53;;;;;;;-7.08;77.17;102607.84;5057958;28;20257;-72
2024/01/10 01:56:08;;;;;;;13.23;7.67;;;;;;;-7.06;77.10;102600.94;5056199;28;20248;-72
2024/01/10 01:58:37;;;;;;;14.67;8.23;;;;;;;-6.99;78.59;102610.47;5055914;28;20640;-71
2024/01/10 02:01:06;;;;;;;13.43;8.20;;;;;;;-6.95;78.16;102606.94;5056121;28;20206;-72
2024/01/10 02:03:36;;;;;;;14.67;7.80;;;;;;;-6.91;77.03;102600.88;5056073;28;20323;-72
2024/01/10 02:06:05;;;;;;;12.53;8.00;;;;;;;-6.96;77.46;102602.63;5056040;28;20214;-71
2024/01/10 02:08:35;;;;;;;15.93;8.63;;;;;;;-6.98;76.71;102606.97;5055999;28;20210;-71
2024/01/10 02:11:04;;;;;;;13.57;8.30;;;;;;;-6.96;77.73;102607.84;5055956;28;20215;-71
2024/01/10 02:13:34;;;;;;;13.80;8.03;;;;;;;-6.90;76.88;102610.41;5055859;28;20321;-71
2024/01/10 02:16:04;;;;;;;15.60;8.87;;;;;;;-7.02;78.11;102613.03;5055796;28;20321;-71
2024/01/10 02:18:35;;;;;;;17.13;8.80;;;;;;;-7.13;76.97;102607.00;5055553;28;20638;-71
2024/01/10 02:21:04;;;;;;;14.43;7.97;;;;;;;-7.13;77.07;102607.00;5057157;28;20210;-72
2024/01/10 02:23:32;;;;;;;14.03;8.30;;;;;;;-7.22;79.10;102605.28;5055744;28;20233;-71
2024/01/10 02:26:02;;;;;;;12.17;7.43;;;;;;;-7.19;78.52;102601.81;5055702;28;20297;-71
2024/01/10 02:28:31;;;;;;;13.33;8.07;;;;;;;-7.21;77.29;102600.94;5055977;28;20202;-71
2024/01/10 02:31:00;;;;;;;16.17;8.60;;;;;;;-7.14;79.12;102597.47;5055287;28;20208;-71
2024/01/10 02:33:29;;;;;;;15.00;8.50;;;;;;;-7.11;78.54;102594.84;5055521;28;20230;-71
2024/01/10 02:35:57;;;;;;;16.67;8.83;;;;;;;-7.10;78.92;102599.19;5055067;28;20226;-71
2024/01/10 02:38:26;;;;;;;12.77;8.50;;;;;;;-7.08;77.52;102592.25;5055130;28;20217;-71
2024/01/10 02:40:56;;;;;;;15.10;9.13;;;;;;;-7.10;77.81;102591.38;5055397;28;20237;-71
2024/01/10 02:43:26;;;;;;;15.20;8.33;;;;;;;-7.18;78.26;102590.53;5055322;28;20238;-71
2024/01/10 02:45:54;;;;;;;14.77;8.17;;;;;;;-7.20;78.05;102582.75;5055297;28;20199;-72
2024/01/10 02:48:23;;;;;;;15.13;7.97;;;;;;;-7.05;78.86;102581.81;5055227;28;20202;-72
2024/01/10 02:50:51;;;;;;;16.17;8.30;;;;;;;-7.05;78.85;102581.81;5054917;28;20737;-72
2024/01/10 02:53:20;;;;;;;16.53;9.23;;;;;;;-7.04;78.38;102583.56;5055114;28;20275;-72
2024/01/10 02:55:49;;;;;;;14.73;9.03;;;;;;;-7.27;78.47;102582.75;5055040;28;20313;-72
2024/01/10 02:58:18;;;;;;;16.10;9.27;;;;;;;-7.27;79.30;102585.34;5055094;28;20208;-72
2024/01/10 03:00:48;;;;;;;15.83;9.83;;;;;;;-7.41;80.41;102577.56;5055017;28;20206;-72
2024/01/10 03:03:16;;;;;;;15.37;8.90;;;;;;;-7.52;80.60;102583.66;5054867;28;20267;-72
2024/01/10 03:05:45;;;;;;;20.10;10.20;;;;;;;-7.53;81.42;102579.34;5053401;28;20212;-72
2024/01/10 03:08:13;;;;;;;20.30;10.90;;;;;;;-7.56;81.56;102587.13;5054914;28;20206;-72
2024/01/10 03:10:42;;;;;;;18.07;8.87;;;;;;;-7.58;82.02;102586.25;5054821;28;20202;-72
2024/01/10 03:13:11;;;;;;;20.70;10.20;;;;;;;-7.54;81.77;102586.25;5054729;28;20313;-72
2024/01/10 03:15:39;;;;;;;21.13;11.00;;;;;;;-7.54;81.13;102585.41;5054376;28;20232;-72
2024/01/10 03:18:09;;;;;;;21.40;11.03;;;;;;;-7.44;81.03;102587.13;5054652;28;20285;-72
2024/01/10 03:20:37;;;;;;;23.90;11.37;;;;;;;-7.47;81.87;102587.13;5054345;28;20632;-72
2024/01/10 03:23:06;;;;;;;20.43;11.27;;;;;;;-7.47;81.73;102571.50;5054542;28;20226;-72
2024/01/10 03:25:34;;;;;;;21.87;11.60;;;;;;;-7.49;81.40;102575.84;5054616;28;20202;-72
2024/01/10 03:28:03;;;;;;;24.27;12.43;;;;;;;-7.50;80.46;102567.16;5054526;28;20210;-72
2024/01/10 03:30:32;;;;;;;23.40;12.43;;;;;;;-7.50;80.78;102561.13;5054463;28;20202;-72
2024/01/10 03:33:00;;;;;;;27.97;14.37;;;;;;;-7.51;80.69;102560.25;5054373;28;20222;-72
2024/01/10 03:35:30;;;;;;;26.87;13.93;;;;;;;-7.51;82.53;102554.19;5053989;28;20251;-72
2024/01/10 03:37:59;;;;;;;27.53;13.77;;;;;;;-7.59;81.40;102553.31;5054001;28;20301;-72
2024/01/10 03:40:27;;;;;;;24.93;13.73;;;;;;;-7.51;82.20;102554.19;5054328;28;20209;-72
2024/01/10 03:42:56;;;;;;;32.20;15.90;;;;;;;-7.51;81.58;102549.84;5054168;28;20329;-72
2024/01/10 03:45:24;;;;;;;28.20;14.07;;;;;;;-7.62;82.10;102555.91;5054204;28;20229;-72
2024/01/10 03:47:53;;;;;;;29.63;15.03;;;;;;;-7.63;82.15;102556.78;5054155;28;20622;-72
2024/01/10 03:50:21;;;;;;;28.40;14.70;;;;;;;-7.69;82.82;102549.84;5054111;28;20202;-72
2024/01/10 03:52:52;;;;;;;27.17;14.53;;;;;;;-7.68;82.67;102549.00;5053980;28;20279;-72
2024/01/10 03:55:20;;;;;;;23.77;13.30;;;;;;;-7.61;82.93;102544.66;5053685;28;20743;-72
2024/01/10 03:57:49;;;;;;;28.53;14.43;;;;;;;-7.65;83.17;102545.53;5053906;28;20316;-72
2024/01/10 04:00:17;;;;;;;28.20;14.67;;;;;;;-7.57;82.67;102551.59;5053651;28;20690;-72
2024/01/10 04:02:46;;;;;;;23.83;14.07;;;;;;;-7.63;82.96;102559.38;5053836;28;20257;-71
2024/01/10 04:05:17;;;;;;;25.87;14.00;;;;;;;-7.68;82.76;102553.31;5053576;28;20197;-72
2024/01/10 04:07:45;;;;;;;28.67;14.37;;;;;;;-7.66;83.05;102557.66;5053815;28;20198;-71
2024/01/10 04:10:15;;;;;;;25.27;14.07;;;;;;;-7.68;83.61;102548.13;5053781;28;20248;-72
2024/01/10 04:12:45;;;;;;;26.33;13.70;;;;;;;-7.60;82.32;102554.19;5053646;28;20222;-71
2024/01/10 04:15:13;;;;;;;24.50;13.13;;;;;;;-7.56;83.24;102550.69;5053698;28;20296;-71
2024/01/10 04:17:42;;;;;;;23.43;13.20;;;;;;;-7.57;82.34;102554.19;5053244;28;20225;-71
2024/01/10 04:20:11;;;;;;;23.03;12.47;;;;;;;-7.52;82.63;102557.63;5053588;28;20257;-71
2024/01/10 04:22:40;;;;;;;26.03;13.20;;;;;;;-7.53;82.25;102553.31;5053540;28;20229;-72
2024/01/10 04:25:09;;;;;;;22.83;12.63;;;;;;;-7.51;82.51;102555.03;5053236;28;20627;-72
2024/01/10 04:27:39;;;;;;;21.83;12.53;;;;;;;-7.57;82.08;102549.88;5053404;28;20301;-72
2024/01/10 04:30:09;;;;;;;22.40;12.60;;;;;;;-7.54;82.07;102554.19;5053493;28;20210;-72
2024/01/10 04:32:37;;;;;;;24.20;12.63;;;;;;;-7.57;82.16;102556.78;5053384;28;20234;-72
2024/01/10 04:35:07;;;;;;;23.00;12.63;;;;;;;-7.58;82.02;102545.50;5053090;28;20209;-72
2024/01/10 04:37:35;;;;;;;25.93;12.43;;;;;;;-7.54;81.71;102547.25;5053337;28;20230;-72
2024/01/10 04:40:04;;;;;;;21.37;12.07;;;;;;;-7.60;82.08;102544.63;5053432;28;20666;-71
2024/01/10 04:42:38;;;;;;;17.83;10.90;;;;;;;-7.67;82.14;102547.28;5053356;28;20656;-72
2024/01/10 04:45:07;;;;;;;21.70;11.67;;;;;;;-7.71;82.76;102542.06;5053353;28;20356;-72
2024/01/10 04:47:35;;;;;;;22.83;12.23;;;;;;;-7.66;83.12;102538.56;5053033;28;20668;-72
2024/01/10 04:50:04;;;;;;;22.53;11.67;;;;;;;-7.73;81.68;102548.13;5053295;28;20241;-72
2024/01/10 04:52:36;;;;;;;21.50;12.40;;;;;;;-7.71;82.42;102547.28;5053674;28;20239;-71
2024/01/10 04:55:07;;;;;;;20.57;12.03;;;;;;;-7.67;82.78;102542.06;5053239;28;20213;-71
2024/01/10 04:57:37;;;;;;;20.47;11.63;;;;;;;-7.60;82.25;102539.44;5052819;28;20322;-71
2024/01/10 05:00:07;;;;;;;22.13;11.90;;;;;;;-7.52;81.78;102537.69;5052955;28;20751;-72
2024/01/10 05:02:35;;;;;;;22.37;12.53;;;;;;;-7.54;81.37;102538.56;5052817;28;20226;-72
2024/01/10 05:05:04;;;;;;;21.13;11.17;;;;;;;-7.46;82.41;102539.41;5053174;28;20229;-72
2024/01/10 05:07:33;;;;;;;24.17;12.63;;;;;;;-7.44;81.11;102529.88;5053104;28;20206;-72
2024/01/10 05:10:01;;;;;;;23.30;12.10;;;;;;;-7.53;81.52;102533.34;5053087;28;20292;-72
2024/01/10 05:12:30;;;;;;;22.63;12.93;;;;;;;-7.57;81.66;102531.66;5052765;28;20764;-72
2024/01/10 05:15:00;;;;;;;25.97;12.63;;;;;;;-7.61;81.60;102518.66;5053121;28;20248;-72
2024/01/10 05:17:28;;;;;;;27.60;14.13;;;;;;;-7.57;80.49;102512.56;5053028;28;20257;-71
2024/01/10 05:19:57;;;;;;;23.73;13.23;;;;;;;-7.50;80.40;102511.69;5053042;28;20206;-71
2024/01/10 05:22:25;;;;;;;26.20;13.70;;;;;;;-7.44;80.72;102514.28;5052934;28;20254;-71
2024/01/10 05:24:54;;;;;;;26.67;14.80;;;;;;;-7.50;81.49;102516.91;5052982;28;20198;-72
2024/01/10 05:27:23;;;;;;;28.57;14.27;;;;;;;-7.45;81.05;102525.53;5052921;28;20255;-72
2024/01/10 05:29:51;;;;;;;25.60;13.63;;;;;;;-7.42;81.41;102512.53;5054975;28;20206;-72
2024/01/10 05:32:21;;;;;;;24.73;13.87;;;;;;;-7.49;79.76;102523.81;5056137;28;20367;-71
2024/01/10 05:34:50;;;;;;;26.73;13.73;;;;;;;-7.49;81.46;102521.22;5056211;28;20695;-72
2024/01/10 05:37:19;;;;;;;24.27;13.83;;;;;;;-7.51;81.13;102517.75;5056587;28;20225;-72
2024/01/10 05:39:47;;;;;;;25.83;13.60;;;;;;;-7.54;80.51;102513.44;5055769;28;20301;-71
2024/01/10 05:42:16;;;;;;;26.40;13.63;;;;;;;-7.56;80.56;102514.28;5056423;28;20321;-71
2024/01/10 05:44:44;;;;;;;29.63;14.10;;;;;;;-7.55;81.04;102521.22;5056061;28;20202;-72
2024/01/10 05:47:13;;;;;;;25.17;14.17;;;;;;;-7.52;81.21;102524.69;5056451;28;20293;-72
2024/01/10 05:49:43;;;;;;;25.63;14.70;;;;;;;-7.63;80.58;102530.78;5056349;28;20221;-72
2024/01/10 05:52:12;;;;;;;26.97;14.40;;;;;;;-7.51;81.71;102533.38;5056269;28;20222;-72
2024/01/10 05:54:40;;;;;;;25.97;13.70;;;;;;;-7.52;79.82;102532.50;5056012;28;20703;-72
2024/01/10 05:57:09;;;;;;;23.67;14.43;;;;;;;-7.49;79.87;102537.69;5056212;28;20308;-72
2024/01/10 05:59:37;;;;;;;26.73;14.57;;;;;;;-7.49;80.11;102536.81;5056445;28;20612;-71
2024/01/10 06:02:06;;;;;;;26.43;14.73;;;;;;;-7.48;80.67;102535.97;5056109;28;20316;-72
2024/01/10 06:04:34;;;;;;;25.83;14.80;;;;;;;-7.44;81.29;102537.69;5056088;28;20237;-72
2024/01/10 06:07:05;;;;;;;24.97;14.73;;;;;;;-7.50;80.06;102535.09;5056052;28;20248;-72
2024/01/10 06:09:33;;;;;;;29.03;15.03;;;;;;;-7.50;80.45;102540.31;5056028;28;20281;-72
2024/01/10 06:12:03;;;;;;;26.93;14.83;;;;;;;-7.57;80.28;102546.38;5055922;28;20327;-72
2024/01/10 06:14:31;;;;;;;25.03;14.03;;;;;;;-7.59;81.53;102540.31;5055915;28;20210;-72
2024/01/10 06:17:01;;;;;;;30.67;17.40;;;;;;;-7.60;79.73;102528.19;5055764;28;20210;-72
2024/01/10 06:19:29;;;;;;;29.00;15.70;;;;;;;-7.62;80.44;102535.13;5055813;28;20221;-72
2024/01/10 06:21:58;;;;;;;28.37;14.90;;;;;;;-7.62;81.03;102535.97;5055423;28;20630;-72
2024/01/10 06:24:28;;;;;;;28.37;15.40;;;;;;;-7.78;81.05;102534.28;5055750;28;20210;-72
2024/01/10 06:26:56;;;;;;;32.27;16.33;;;;;;;-7.78;81.70;102532.53;5055663;28;20206;-72
2024/01/10 06:29:25;;;;;;;32.57;15.87;;;;;;;-7.88;81.76;102535.16;5055326;28;20660;-72
2024/01/10 06:31:56;;;;;;;30.17;16.60;;;;;;;-7.93;82.18;102532.53;5055229;28;20214;-72
2024/01/10 06:34:24;;;;;;;30.63;15.13;;;;;;;-7.98;82.56;102536.03;5055325;28;20297;-71
2024/01/10 06:36:53;;;;;;;30.80;16.10;;;;;;;-7.97;82.35;102536.00;5055739;28;20541;-71
2024/01/10 06:39:21;;;;;;;28.97;17.03;;;;;;;-7.97;83.33;102519.53;5055408;28;20269;-71
2024/01/10 06:41:51;;;;;;;31.90;16.10;;;;;;;-8.12;82.96;102528.22;5055004;28;20410;-71
2024/01/10 06:44:20;;;;;;;37.03;17.77;;;;;;;-8.11;83.45;102524.72;5055418;28;20293;-72
2024/01/10 06:46:48;;;;;;;30.47;16.57;;;;;;;-8.02;84.12;102529.94;5055008;28;20206;-72
2024/01/10 06:49:17;;;;;;;31.40;17.03;;;;;;;-7.91;83.54;102523.00;5055292;28;20289;-72
2024/01/10 06:51:45;;;;;;;32.10;17.03;;;;;;;-7.97;82.97;102524.72;5055137;28;20214;-72
2024/01/10 06:54:14;;;;;;;32.80;16.73;;;;;;;-7.93;82.41;102514.34;5055157;28;20206;-72
2024/01/10 06:56:43;;;;;;;28.63;16.03;;;;;;;-7.89;82.95;102528.22;5054801;28;20734;-71
2024/01/10 06:59:16;;;;;;;31.83;18.70;;;;;;;-7.83;81.27;102518.66;5055028;28;20268;-71
2024/01/10 07:01:46;;;;;;;30.63;16.53;;;;;;;-7.74;81.85;102521.25;5055007;28;20221;-72
2024/01/10 07:04:14;;;;;;;31.27;17.30;;;;;;;-7.66;82.26;102528.19;5054947;28;20210;-71
2024/01/10 07:06:47;;;;;;;33.93;17.50;;;;;;;-7.89;81.34;102526.47;5054960;28;20194;-72
2024/01/10 07:09:19;;;;;;;29.70;17.33;;;;;;;-7.91;82.23;102519.56;5054932;28;20206;-72
2024/01/10 07:11:48;;;;;;;31.73;16.90;;;;;;;-7.81;81.72;102522.13;5054907;28;20197;-72
2024/01/10 07:14:18;;;;;;;35.43;18.23;;;;;;;-7.93;81.09;102540.34;5054817;28;20272;-72
2024/01/10 07:16:47;;;;;;;37.93;19.03;;;;;;;-8.05;82.37;102542.94;5054814;28;20209;-72
2024/01/10 07:19:16;;;;;;;38.53;18.73;;;;;;;-7.95;83.46;102531.69;5054869;28;20283;-72
2024/01/10 07:21:44;;;;;;;32.10;17.97;;;;;;;-7.86;82.80;102531.66;5054572;28;20210;-72
2024/01/10 07:24:13;;;;;;;33.03;18.03;;;;;;;-7.82;82.24;102538.59;5054825;28;20233;-72
2024/01/10 07:26:41;;;;;;;37.90;18.97;;;;;;;-7.91;81.93;102546.38;5054476;28;20279;-73
2024/01/10 07:29:10;;;;;;;37.27;17.93;;;;;;;-7.86;82.44;102544.66;5054575;28;20274;-72
2024/01/10 07:31:40;;;;;;;37.77;17.90;;;;;;;-7.87;81.89;102550.72;5054411;28;20213;-72
2024/01/10 07:34:10;;;;;;;38.43;18.33;;;;;;;-7.82;82.52;102543.81;5053975;28;20584;-72
2024/01/10 07:36:43;;;;;;;28.60;16.97;;;;;;;-7.77;82.71;102542.06;5054126;28;20691;-72
2024/01/10 07:39:15;;;;;;;33.50;17.17;;;;;;;-7.91;81.09;102549.00;5054315;28;20214;-72
2024/01/10 07:41:44;;;;;;;33.17;16.73;;;;;;;-7.95;82.26;102562.88;5053970;28;20195;-72
2024/01/10 07:44:12;;;;;;;33.60;16.73;;;;;;;-7.93;82.10;102558.53;5054233;28;20234;-72
2024/01/10 07:46:42;;;;;;;34.53;17.03;;;;;;;-7.87;82.45;102555.06;5054157;28;20214;-72
2024/01/10 07:49:11;;;;;;;34.23;18.07;;;;;;;-7.97;81.68;102559.41;5054107;28;20267;-72
2024/01/10 07:51:40;;;;;;;31.90;17.43;;;;;;;-7.92;82.99;102555.06;5053766;28;20213;-72
2024/01/10 07:54:08;;;;;;;31.63;16.80;;;;;;;-7.83;82.22;102556.78;5054101;28;20237;-72
2024/01/10 07:56:37;;;;;;;30.17;16.10;;;;;;;-7.89;83.02;102562.00;5053993;28;20206;-72
2024/01/10 07:59:05;;;;;;;39.47;16.67;;;;;;;-7.87;82.41;102566.31;5053614;28;20261;-72
2024/01/10 08:01:34;;;;;;;31.40;16.57;;;;;;;-7.86;81.93;102560.28;5053943;28;20222;-72
2024/01/10 08:04:04;;;;;;;31.30;16.23;;;;;;;-7.95;81.34;102567.22;5053891;28;20232;-72
2024/01/10 08:06:33;;;;;;;35.53;17.57;;;;;;;-7.91;82.71;102572.38;5053881;28;20190;-72
2024/01/10 08:09:04;;;;;;;33.20;15.97;;;;;;;-7.84;82.36;102561.13;5053816;28;20217;-72
2024/01/10 08:11:34;;;;;;;33.03;17.50;;;;;;;-7.82;81.99;102564.59;5053813;28;20294;-72
2024/01/10 08:14:02;;;;;;;41.30;20.00;;;;;;;-7.80;82.92;102567.19;5053624;28;20261;-61
2024/01/10 08:16:32;;;;;;;38.00;17.30;;;;;;;-7.95;82.49;102568.06;5053757;28;20210;-67
2024/01/10 08:19:00;;;;;;;31.00;17.40;;;;;;;-7.87;82.62;102561.13;5053603;28;20225;-67
2024/01/10 08:21:30;;;;;;;32.57;17.50;;;;;;;-7.95;81.38;102562.88;5053607;28;20236;-67
2024/01/10 08:23:59;;;;;;;33.70;18.43;;;;;;;-7.91;82.23;102563.75;5053531;28;20292;-67
2024/01/10 08:26:28;;;;;;;35.60;18.10;;;;;;;-8.05;82.76;102566.34;5053574;28;20245;-67
2024/01/10 08:28:57;;;;;;;33.93;17.20;;;;;;;-8.00;82.74;102550.72;5053491;28;20202;-67
2024/01/10 08:31:26;;;;;;;35.47;18.30;;;;;;;-7.94;82.83;102553.31;5053537;28;20214;-67
2024/01/10 08:33:56;;;;;;;31.93;18.10;;;;;;;-8.10;83.27;102549.00;5053262;28;20584;-68
2024/01/10 08:36:25;;;;;;;31.97;17.47;;;;;;;-8.07;83.95;102551.59;5053484;28;20191;-68
2024/01/10 08:38:55;;;;;;;37.50;19.13;;;;;;;-8.21;83.79;102548.97;5053260;28;20226;-68
2024/01/10 08:41:23;;;;;;;34.30;18.63;;;;;;;-8.22;85.27;102555.06;5053367;28;20246;-68
2024/01/10 08:43:52;;;;;;;35.30;18.40;;;;;;;-8.14;85.57;102561.09;5052958;28;20704;-68
2024/01/10 08:46:21;;;;;;;37.73;19.87;;;;;;;-8.05;85.09;102555.94;5053466;28;20256;-68
2024/01/10 08:48:49;;;;;;;37.77;18.63;;;;;;;-7.97;85.50;102554.19;5053032;28;20760;-68
2024/01/10 08:51:18;;;;;;;34.67;18.63;;;;;;;-8.06;84.72;102549.00;5053331;28;20255;-68
2024/01/10 08:53:46;;;;;;;36.57;18.90;;;;;;;-8.03;86.20;102559.41;5053198;28;20600;-67
2024/01/10 08:56:17;;;;;;;34.93;17.70;;;;;;;-8.04;85.68;102557.66;5053317;28;20248;-67
2024/01/10 08:58:45;;;;;;;36.37;19.00;;;;;;;-8.01;85.49;102552.44;5053156;28;20222;-67
2024/01/10 09:01:14;;;;;;;38.53;19.23;;;;;;;-8.06;85.29;102543.81;5052956;28;20588;-67
2024/01/10 09:03:42;;;;;;;41.20;19.87;;;;;;;-8.08;85.48;102555.06;5054961;28;20234;-67
2024/01/10 09:06:11;;;;;;;41.20;20.47;;;;;;;-8.01;86.96;102555.06;5057312;28;20202;-70
2024/01/10 09:08:40;;;;;;;36.17;18.97;;;;;;;-8.00;86.74;102548.13;5057196;28;20208;-70
2024/01/10 09:11:09;;;;;;;37.73;19.73;;;;;;;-7.94;86.72;102549.00;5057164;28;20210;-71
2024/01/10 09:13:40;;;;;;;42.60;20.70;;;;;;;-7.93;86.58;102544.66;5057084;28;20226;-71
2024/01/10 09:16:09;;;;;;;38.43;19.67;;;;;;;-7.98;86.30;102546.41;5057142;28;20198;-71
2024/01/10 09:18:38;;;;;;;41.83;21.47;;;;;;;-8.00;86.90;102549.00;5056939;28;20213;-71
2024/01/10 09:21:07;;;;;;;43.93;21.83;;;;;;;-7.96;86.17;102547.25;5056977;28;20202;-71
2024/01/10 09:23:36;;;;;;;40.50;21.47;;;;;;;-7.95;85.99;102542.09;5056819;28;20261;-72
2024/01/10 09:26:05;;;;;;;39.60;20.77;;;;;;;-7.93;86.46;102529.06;5056518;28;20671;-72
2024/01/10 09:28:33;;;;;;;42.63;21.93;;;;;;;-7.90;86.57;102545.53;5056832;28;20225;-72
2024/01/10 09:31:03;;;;;;;44.90;22.67;;;;;;;-7.89;86.82;102547.28;5056500;28;20210;-72
2024/01/10 09:33:32;;;;;;;45.40;22.63;;;;;;;-7.93;86.59;102550.72;5056685;28;20228;-72
2024/01/10 09:36:00;;;;;;;43.07;21.20;;;;;;;-7.93;86.44;102550.72;5056390;28;20214;-72
2024/01/10 09:38:29;;;;;;;48.30;22.73;;;;;;;-7.87;86.24;102550.72;5056703;28;20206;-72
2024/01/10 09:41:02;;;;;;;41.83;21.67;;;;;;;-7.87;86.99;102548.13;5056216;28;20226;-72
2024/01/10 09:43:33;;;;;;;38.73;21.53;;;;;;;-7.87;86.02;102542.94;5056261;28;20258;-72
2024/01/10 09:46:04;;;;;;;49.23;23.20;;;;;;;-7.80;86.44;102546.38;5056791;28;20202;-71
2024/01/10 09:48:33;;;;;;;47.17;23.70;;;;;;;-7.76;86.96;102543.81;5056511;28;20596;-71
2024/01/10 09:51:02;;;;;;;40.23;22.67;;;;;;;-7.69;87.16;102544.66;5056469;28;20202;-71
2024/01/10 09:53:36;;;;;;;48.20;25.50;;;;;;;-7.64;86.88;102536.84;5056299;28;20230;-71
2024/01/10 09:56:06;;;;;;;44.70;23.57;;;;;;;-7.58;86.34;102534.25;5056360;28;20213;-71
2024/01/10 09:58:38;;;;;;;39.30;20.70;;;;;;;-7.65;85.16;102528.19;5056208;28;20208;-71
2024/01/10 10:01:09;;;;;;;47.17;22.80;;;;;;;-7.55;85.58;102529.03;5056162;28;20210;-71
2024/01/10 10:03:42;;;;;;;47.83;23.37;;;;;;;-7.57;85.58;102528.19;5056115;28;20222;-72
2024/01/10 10:06:10;;;;;;;43.33;24.13;;;;;;;-7.53;85.75;102527.31;5056136;28;20272;-71
2024/01/10 10:08:43;;;;;;;45.70;22.73;;;;;;;-7.53;83.95;102529.91;5055815;28;20702;-71
2024/01/10 10:11:14;;;;;;;44.53;22.63;;;;;;;-7.48;85.13;102536.81;5056067;28;20240;-71
2024/01/10 10:13:43;;;;;;;46.47;23.73;;;;;;;-7.47;84.66;102533.38;5055923;28;20280;-71
2024/01/10 10:16:12;;;;;;;50.37;23.43;;;;;;;-7.47;83.98;102528.16;5055280;28;20206;-71
2024/01/10 10:18:42;;;;;;;45.17;23.23;;;;;;;-7.44;84.11;102527.28;5055968;28;20195;-71
2024/01/10 10:21:13;;;;;;;45.87;23.57;;;;;;;-7.42;84.31;102517.72;5055484;28;20324;-71
2024/01/10 10:23:43;;;;;;;44.57;24.00;;;;;;;-7.39;83.85;102517.72;5055745;28;20230;-72
2024/01/10 10:26:19;;;;;;;47.60;23.70;;;;;;;-7.36;84.65;102525.50;5055739;28;20206;-72
2024/01/10 10:28:48;;;;;;;51.30;24.73;;;;;;;-7.35;83.77;102519.44;5055771;28;20239;-72
2024/01/10 10:31:19;;;;;;;49.37;24.57;;;;;;;-7.32;84.35;102516.84;5055633;28;20255;-72
2024/01/10 10:33:50;;;;;;;56.87;23.60;;;;;;;-7.33;83.96;102504.72;5055437;28;20230;-72
2024/01/10 10:36:19;;;;;;;46.90;23.77;;;;;;;-7.31;84.07;102505.56;5055622;28;20190;-72
2024/01/10 10:38:49;;;;;;;47.93;22.40;;;;;;;-7.25;84.69;102500.34;5055143;28;20572;-72
2024/01/10 10:41:19;;;;;;;48.33;24.70;;;;;;;-7.23;83.52;102494.28;5055154;28;20700;-72
2024/01/10 10:43:50;;;;;;;52.43;24.47;;;;;;;-7.18;83.68;102496.84;5055334;28;20226;-72
2024/01/10 10:46:22;;;;;;;45.70;24.40;;;;;;;-7.15;83.58;102496.81;5055419;28;20242;-71
2024/01/10 10:48:50;;;;;;;48.00;23.30;;;;;;;-7.12;82.48;102496.81;5055413;28;20226;-72
2024/01/10 10:51:28;;;;;;;48.67;24.47;;;;;;;-7.09;81.83;102496.81;5055005;28;20289;-72
2024/01/10 10:53:57;;;;;;;50.50;24.97;;;;;;;-7.04;83.14;102497.66;5054970;28;20625;-72
2024/01/10 10:56:30;;;;;;;55.27;24.77;;;;;;;-7.00;82.68;102499.38;5055258;28;20206;-72
2024/01/10 10:59:00;;;;;;;49.17;24.00;;;;;;;-6.97;81.54;102496.75;5055197;28;20252;-72
2024/01/10 11:01:32;;;;;;;48.33;25.00;;;;;;;-6.93;82.59;102501.09;5055126;28;20249;-72
2024/01/10 11:04:01;;;;;;;49.77;24.50;;;;;;;-6.90;81.91;102493.25;5054729;28;20297;-72
2024/01/10 11:06:30;;;;;;;49.40;24.23;;;;;;;-6.86;82.40;102489.75;5055543;28;20596;-72
2024/01/10 11:09:04;;;;;;;49.87;25.47;;;;;;;-6.81;82.19;102487.97;5054663;28;20212;-72
2024/01/10 11:11:48;;;;;;;55.03;25.07;;;;;;;-6.80;81.00;102489.72;5054942;28;20182;-72
2024/01/10 11:14:30;;;;;;;48.80;23.97;;;;;;;-6.77;80.71;102491.44;5054910;28;20198;-72
2024/01/10 11:17:43;;;;;;;46.30;23.87;;;;;;;-6.72;80.80;102487.97;5054889;28;20200;-72
2024/01/10 11:20:26;;;;;;;48.20;23.00;;;;;;;-6.67;81.17;102486.16;5054365;28;20676;-71
2024/01/10 11:23:14;;;;;;;52.03;25.63;;;;;;;-6.63;81.16;102480.94;5054370;28;20226;-71